Time;durP1;ratioP1;P1;durP2;ratioP2;P2;SDS_P1;SDS_P2;PMS_P1;PMS_P2;Temp;Humidity;BMP_temperature;BMP_pressure;BME280_temperature;BME280_humidity;BME280_pressure;Samples;Min_cycle;Max_cycle;Signal;HPM_P1;HPM_P2
2021/11/19 00:02:20;;;;;;;92.02;50.10;;;;;;;1.85;66.29;101250.69;1821304;78;21014;-71
2021/11/19 00:04:46;;;;;;;87.42;48.35;;;;;;;1.85;66.25;101242.94;1821663;78;21116;-72
2021/11/19 00:07:13;;;;;;;82.10;47.48;;;;;;;1.85;66.25;101238.61;1821211;78;20963;-72
2021/11/19 00:09:41;;;;;;;82.97;47.55;;;;;;;1.88;66.23;101242.03;1821222;78;21017;-71
2021/11/19 00:12:08;;;;;;;84.77;50.48;;;;;;;1.85;66.27;101246.37;1821393;78;20952;-73
2021/11/19 00:14:35;;;;;;;78.67;43.75;;;;;;;1.86;66.31;101238.16;1821704;78;20848;-70
2021/11/19 00:17:05;;;;;;;82.30;46.02;;;;;;;1.84;66.37;101235.59;1821472;78;22134;-71
2021/11/19 00:19:38;;;;;;;80.85;44.18;;;;;;;1.84;66.42;101231.71;1821688;78;20864;-70
2021/11/19 00:22:06;;;;;;;87.27;47.08;;;;;;;1.86;66.48;101236.87;1821571;78;20864;-71
2021/11/19 00:24:35;;;;;;;85.03;45.43;;;;;;;1.88;66.44;101234.27;1821486;78;20962;-70
2021/11/19 00:27:04;;;;;;;84.55;47.65;;;;;;;1.86;66.49;101233.84;1821394;78;20900;-70
2021/11/19 00:29:32;;;;;;;85.42;47.23;;;;;;;1.86;66.47;101231.25;1821833;78;21815;-71
2021/11/19 00:31:59;;;;;;;73.55;43.42;;;;;;;1.86;66.53;101225.23;1821346;78;20923;-70
2021/11/19 00:34:25;;;;;;;78.05;43.63;;;;;;;1.88;66.58;101222.63;1821790;78;20852;-70
2021/11/19 00:36:58;;;;;;;88.10;47.13;;;;;;;1.89;66.56;101214.87;1821483;78;20951;-71
2021/11/19 00:39:21;;;;;;;77.12;44.73;;;;;;;1.90;66.49;101211.39;1820436;78;21476;-71
2021/11/19 00:41:49;;;;;;;79.25;46.28;;;;;;;1.87;66.48;101214.03;1821383;78;21100;-70
2021/11/19 00:44:16;;;;;;;80.62;41.75;;;;;;;1.84;66.52;101200.68;1821705;78;20848;-71
2021/11/19 00:46:44;;;;;;;77.25;42.43;;;;;;;1.82;66.65;101193.41;1821503;78;21389;-71
2021/11/19 00:49:11;;;;;;;75.57;39.60;;;;;;;1.83;66.74;101197.69;1821604;78;20888;-70
2021/11/19 00:51:43;;;;;;;81.82;43.78;;;;;;;1.83;66.87;101195.11;1821381;78;20906;-70
2021/11/19 00:54:10;;;;;;;76.33;40.03;;;;;;;1.85;66.88;101188.18;1821543;78;21794;-70
2021/11/19 00:56:45;;;;;;;79.27;41.92;;;;;;;1.86;66.96;101189.03;1821282;78;20868;-70
2021/11/19 00:59:13;;;;;;;74.15;41.13;;;;;;;1.89;67.00;101193.30;1821475;78;20883;-69
2021/11/19 01:01:45;;;;;;;67.05;38.30;;;;;;;1.91;67.01;101196.72;1821665;78;21006;-71
2021/11/19 01:04:12;;;;;;;72.65;38.92;;;;;;;1.94;66.99;101204.00;1821503;78;20876;-70
2021/11/19 01:06:40;;;;;;;67.70;40.75;;;;;;;1.95;67.01;101203.11;1821409;78;21041;-70
2021/11/19 01:09:11;;;;;;;88.03;47.03;;;;;;;1.98;67.02;101203.09;1821469;78;21409;-71
2021/11/19 01:11:38;;;;;;;100.15;56.18;;;;;;;1.97;67.01;101186.28;1821643;78;20923;-71
2021/11/19 01:14:07;;;;;;;100.80;56.98;;;;;;;1.99;67.00;101191.84;1821245;78;20908;-70
2021/11/19 01:16:41;;;;;;;89.97;49.08;;;;;;;2.00;67.02;101201.75;1821733;78;20871;-71
2021/11/19 01:19:17;;;;;;;87.00;47.73;;;;;;;2.01;66.97;101194.42;1821531;78;21145;-70
2021/11/19 01:21:49;;;;;;;72.50;41.50;;;;;;;1.98;67.08;101185.39;1821625;78;20975;-72
2021/11/19 01:24:16;;;;;;;83.45;40.48;;;;;;;1.98;66.97;101180.22;1821596;78;20860;-70
2021/11/19 01:26:43;;;;;;;71.17;40.45;;;;;;;1.94;67.04;101169.09;1821582;78;20891;-71
2021/11/19 01:29:12;;;;;;;74.50;41.45;;;;;;;1.94;67.10;101174.70;1821466;78;20998;-70
2021/11/19 01:31:45;;;;;;;73.72;41.28;;;;;;;1.92;67.14;101173.88;1821591;78;21170;-70
2021/11/19 01:34:14;;;;;;;86.37;41.25;;;;;;;1.91;67.25;101179.46;1819530;78;20927;-70
2021/11/19 01:36:46;;;;;;;76.20;39.33;;;;;;;1.92;67.31;101173.88;1817032;78;20840;-71
2021/11/19 01:39:27;;;;;;;75.10;40.73;;;;;;;1.93;67.41;101169.10;1755774;78;20880;-69
2021/11/19 01:42:07;;;;;;;71.65;38.35;;;;;;;1.97;67.47;101180.67;1818769;78;21484;-70
2021/11/19 01:45:00;;;;;;;71.30;39.85;;;;;;;2.01;67.50;101180.20;1789440;78;21156;-70
2021/11/19 01:47:29;;;;;;;74.62;39.33;;;;;;;2.04;67.44;101175.80;1821626;78;20911;-69
2021/11/19 01:49:56;;;;;;;72.92;41.20;;;;;;;2.06;67.50;101170.17;1821435;78;20974;-70
2021/11/19 01:52:30;;;;;;;72.10;38.95;;;;;;;2.09;67.43;101171.88;1821568;78;20951;-70
2021/11/19 01:55:02;;;;;;;67.82;35.08;;;;;;;2.09;67.48;101161.53;1820782;78;20931;-70
2021/11/19 01:57:34;;;;;;;69.32;38.28;;;;;;;2.12;67.58;101161.92;1821365;78;21136;-70
2021/11/19 02:00:06;;;;;;;73.33;37.15;;;;;;;2.13;67.65;101163.16;1816248;78;20962;-69
2021/11/19 02:02:41;;;;;;;71.22;35.45;;;;;;;2.15;67.63;101160.12;1819696;78;21373;-70
2021/11/19 02:05:14;;;;;;;72.53;37.60;;;;;;;2.16;67.64;101154.53;1821489;78;20927;-70
2021/11/19 02:07:46;;;;;;;76.22;37.40;;;;;;;2.19;67.63;101154.47;1821929;78;21393;-70
2021/11/19 02:10:47;;;;;;;67.50;40.00;;;;;;;2.18;67.63;101147.15;1818619;78;21164;-71
2021/11/19 02:13:26;;;;;;;71.33;38.20;;;;;;;2.19;67.62;101145.41;1821291;78;20868;-70
2021/11/19 02:16:07;;;;;;;64.30;35.17;;;;;;;2.21;67.65;101139.33;1821462;78;20919;-70
2021/11/19 02:18:55;;;;;;;67.20;36.53;;;;;;;2.22;67.70;101141.47;1821537;78;21424;-70
2021/11/19 02:21:25;;;;;;;68.15;35.85;;;;;;;2.20;67.79;101142.80;1820746;78;20907;-69
2021/11/19 02:24:01;;;;;;;78.15;38.98;;;;;;;2.22;67.83;101135.88;1821480;78;21122;-69
2021/11/19 02:26:39;;;;;;;68.75;37.03;;;;;;;2.22;67.87;101133.70;1821089;78;20912;-70
2021/11/19 02:29:07;;;;;;;68.92;36.28;;;;;;;2.25;67.88;101129.78;1821703;78;20970;-69
2021/11/19 02:31:52;;;;;;;77.03;38.05;;;;;;;2.23;67.96;101124.63;1821792;78;20911;-70
2021/11/19 02:34:20;;;;;;;73.45;38.15;;;;;;;2.25;68.04;101122.02;1822369;78;21302;-70
2021/11/19 02:37:03;;;;;;;63.90;34.85;;;;;;;2.25;68.07;101111.23;1789706;78;21813;-71
2021/11/19 02:39:39;;;;;;;60.10;33.85;;;;;;;2.24;68.13;101109.95;1819639;78;21469;-70
2021/11/19 02:42:12;;;;;;;63.98;36.10;;;;;;;2.20;68.30;101107.00;1821508;78;20903;-70
2021/11/19 02:44:40;;;;;;;73.90;36.10;;;;;;;2.18;68.53;101097.99;1821578;78;21002;-69
2021/11/19 02:47:13;;;;;;;74.65;39.33;;;;;;;2.20;68.98;101097.94;1788940;78;20876;-69
2021/11/19 02:49:42;;;;;;;71.17;38.35;;;;;;;2.19;69.20;101096.25;1821717;78;21110;-69
2021/11/19 02:52:23;;;;;;;71.67;34.80;;;;;;;2.18;69.28;101091.94;1821330;78;20911;-70
2021/11/19 02:54:52;;;;;;;72.42;37.08;;;;;;;2.18;69.45;101091.94;1821239;78;20959;-70
2021/11/19 02:57:19;;;;;;;65.87;35.65;;;;;;;2.16;69.64;101094.58;1821260;78;20962;-70
2021/11/19 02:59:46;;;;;;;71.82;36.65;;;;;;;2.16;69.83;101092.44;1821630;78;20966;-69
2021/11/19 03:02:17;;;;;;;71.97;37.03;;;;;;;2.15;69.88;101091.56;1821218;78;21039;-71
2021/11/19 03:04:51;;;;;;;61.55;35.55;;;;;;;2.17;69.83;101094.13;1789437;78;20986;-71
2021/11/19 03:07:19;;;;;;;70.55;36.90;;;;;;;2.13;69.80;101093.77;1821318;78;20915;-70
2021/11/19 03:10:13;;;;;;;66.57;35.03;;;;;;;2.11;69.78;101095.52;1821337;78;21472;-71
2021/11/19 03:12:40;;;;;;;53.75;31.73;;;;;;;2.09;69.83;101089.10;1755725;81;21029;-71
2021/11/19 03:15:12;;;;;;;58.05;33.13;;;;;;;2.05;69.87;101096.05;1755778;80;21120;-71
2021/11/19 03:17:39;;;;;;;53.73;29.30;;;;;;;2.01;69.89;101093.55;1755554;80;21047;-70
2021/11/19 03:20:07;;;;;;;63.10;34.10;;;;;;;1.98;69.78;101093.58;1755795;81;20952;-69
2021/11/19 03:22:35;;;;;;;76.10;39.18;;;;;;;1.94;69.70;101103.14;1755733;80;20991;-70
2021/11/19 03:25:04;;;;;;;57.23;30.52;;;;;;;1.92;69.66;101104.89;1755590;80;20984;-70
2021/11/19 03:27:32;;;;;;;52.35;30.85;;;;;;;1.94;69.57;101101.00;1730686;81;22001;-70
2021/11/19 03:30:01;;;;;;;54.42;28.98;;;;;;;1.93;69.60;101102.70;1754513;81;21468;-70
2021/11/19 03:32:29;;;;;;;52.70;29.50;;;;;;;1.93;69.58;101092.81;1755820;81;20873;-71
2021/11/19 03:34:57;;;;;;;49.95;29.10;;;;;;;1.92;69.63;101098.88;1755759;80;21417;-69
2021/11/19 03:37:24;;;;;;;48.78;28.50;;;;;;;1.91;69.64;101085.52;1780167;80;20841;-70
2021/11/19 03:39:52;;;;;;;58.63;30.55;;;;;;;1.92;69.68;101093.70;1789049;79;21545;-70
2021/11/19 03:42:20;;;;;;;52.70;29.42;;;;;;;1.91;69.70;101096.70;1788944;79;21454;-70
2021/11/19 03:44:53;;;;;;;58.65;31.20;;;;;;;1.91;69.67;101099.29;1789041;80;20920;-70
2021/11/19 03:47:28;;;;;;;50.28;30.02;;;;;;;1.92;69.70;101088.53;1788025;80;20944;-70
2021/11/19 03:49:55;;;;;;;52.03;30.45;;;;;;;1.89;69.68;101093.73;1787425;80;20939;-70
2021/11/19 03:52:27;;;;;;;56.33;31.10;;;;;;;1.86;69.71;101084.30;1788229;79;21470;-70
2021/11/19 03:54:59;;;;;;;54.88;30.60;;;;;;;1.85;69.74;101086.48;1788306;79;20932;-69
2021/11/19 03:57:27;;;;;;;58.80;28.25;;;;;;;1.83;69.79;101092.12;1789017;79;20865;-71
2021/11/19 03:59:55;;;;;;;51.68;29.65;;;;;;;1.83;69.81;101095.55;1788971;80;20895;-70
2021/11/19 04:02:25;;;;;;;53.28;28.70;;;;;;;1.81;69.84;101089.99;1788931;79;21422;-72
2021/11/19 04:04:51;;;;;;;51.42;28.50;;;;;;;1.80;69.90;101086.98;1788887;79;21132;-71
2021/11/19 04:09:24;;;;;;;53.13;29.42;;;;;;;1.82;70.12;101089.98;1798499;79;22316;-71
2021/11/19 04:11:51;;;;;;;55.85;28.67;;;;;;;1.78;70.20;101095.20;1758194;81;20932;-71
2021/11/19 04:14:18;;;;;;;59.95;30.35;;;;;;;1.80;70.25;101093.44;1739043;81;21147;-71
2021/11/19 04:16:47;;;;;;;61.98;30.68;;;;;;;1.80;70.29;101089.15;1758291;81;20948;-70
2021/11/19 04:19:16;;;;;;;57.25;32.08;;;;;;;1.83;70.28;101090.83;1752230;80;20881;-71
2021/11/19 04:21:43;;;;;;;54.65;29.40;;;;;;;1.85;70.28;101089.92;1749924;82;20881;-71
2021/11/19 04:24:14;;;;;;;62.10;32.98;;;;;;;1.86;70.37;101083.00;1750064;81;20889;-70
2021/11/19 04:26:49;;;;;;;50.52;31.10;;;;;;;1.85;70.54;101079.57;1749894;80;21180;-73
2021/11/19 04:29:16;;;;;;;53.87;31.12;;;;;;;1.89;70.69;101077.80;1750171;80;21752;-70
2021/11/19 04:31:48;;;;;;;60.10;29.82;;;;;;;1.89;70.72;101088.15;1748520;82;20928;-70
2021/11/19 04:34:15;;;;;;;57.80;31.37;;;;;;;1.90;70.67;101090.28;1749992;82;20896;-70
2021/11/19 04:36:42;;;;;;;58.42;30.92;;;;;;;1.92;70.67;101080.33;1750107;81;21023;-69
2021/11/19 04:39:11;;;;;;;53.48;30.62;;;;;;;1.94;70.75;101084.19;1750018;80;21487;-69
2021/11/19 04:41:40;;;;;;;51.75;30.08;;;;;;;1.94;70.95;101089.36;1719927;82;20940;-70
2021/11/19 04:44:07;;;;;;;56.35;30.40;;;;;;;1.95;71.08;101081.55;1749940;82;20976;-70
2021/11/19 04:46:36;;;;;;;61.37;33.48;;;;;;;1.98;71.13;101081.52;1749130;80;20944;-70
2021/11/19 04:49:03;;;;;;;57.55;31.20;;;;;;;1.99;71.14;101075.45;1749919;82;21362;-71
2021/11/19 04:51:33;;;;;;;53.70;30.23;;;;;;;2.02;71.09;101070.66;1750109;80;21530;-72
2021/11/19 04:54:01;;;;;;;61.77;31.77;;;;;;;2.03;71.08;101065.92;1749885;80;20983;-71
2021/11/19 04:56:28;;;;;;;62.83;33.65;;;;;;;2.05;71.25;101065.45;1749964;81;21417;-72
2021/11/19 04:58:54;;;;;;;68.22;37.25;;;;;;;2.05;71.45;101070.63;1749982;82;21362;-70
2021/11/19 05:01:26;;;;;;;71.75;38.80;;;;;;;2.05;71.53;101077.94;1750242;81;20979;-72
2021/11/19 05:03:57;;;;;;;75.80;41.28;;;;;;;2.07;71.52;101083.09;1747743;82;21562;-71
2021/11/19 05:06:24;;;;;;;70.42;38.33;;;;;;;2.07;71.49;101089.12;1749740;82;20889;-72
2021/11/19 05:08:51;;;;;;;70.80;38.63;;;;;;;2.07;71.43;101081.36;1750352;81;20896;-70
2021/11/19 05:11:23;;;;;;;64.47;34.33;;;;;;;2.06;71.30;101080.92;1750697;82;20987;-72
2021/11/19 05:13:51;;;;;;;59.33;33.38;;;;;;;2.04;71.36;101078.80;1748913;80;21421;-71
2021/11/19 05:16:18;;;;;;;55.52;29.80;;;;;;;2.02;71.57;101075.42;1750662;82;21533;-71
2021/11/19 05:18:45;;;;;;;58.52;33.30;;;;;;;2.02;71.79;101071.55;1750853;82;21505;-72
2021/11/19 05:21:15;;;;;;;58.00;31.40;;;;;;;2.03;71.86;101069.35;1750210;80;20919;-73
2021/11/19 05:23:42;;;;;;;56.00;31.07;;;;;;;2.04;71.94;101064.58;1750062;80;20956;-72
2021/11/19 05:26:11;;;;;;;59.63;28.87;;;;;;;2.04;71.97;101055.97;1750195;82;21366;-71
2021/11/19 05:28:38;;;;;;;50.65;26.50;;;;;;;2.03;72.04;101052.54;1750446;80;21128;-71
2021/11/19 05:31:05;;;;;;;48.28;26.33;;;;;;;2.03;72.13;101058.16;1749988;80;20927;-70
2021/11/19 05:33:33;;;;;;;52.00;27.65;;;;;;;2.05;72.31;101060.28;1750497;82;20884;-71
2021/11/19 05:36:00;;;;;;;47.88;26.85;;;;;;;2.08;72.41;101062.35;1750143;80;20932;-70
2021/11/19 05:38:29;;;;;;;54.55;27.22;;;;;;;2.11;72.45;101054.98;1750438;80;20979;-71
2021/11/19 05:40:56;;;;;;;54.65;28.17;;;;;;;2.13;72.44;101045.91;1750471;82;21822;-71
2021/11/19 05:43:25;;;;;;;53.05;28.42;;;;;;;2.16;72.33;101052.34;1750142;82;20885;-72
2021/11/19 05:45:54;;;;;;;50.33;27.20;;;;;;;2.16;72.30;101050.59;1748462;82;20900;-70
2021/11/19 05:48:22;;;;;;;52.27;28.32;;;;;;;2.19;72.21;101053.56;1749820;82;20924;-72
2021/11/19 05:50:49;;;;;;;47.17;27.87;;;;;;;2.22;72.20;101053.49;1750247;82;20968;-72
2021/11/19 05:53:16;;;;;;;45.65;28.05;;;;;;;2.24;72.23;101059.49;1750561;80;21100;-72
2021/11/19 05:55:45;;;;;;;44.70;27.62;;;;;;;2.25;72.35;101065.09;1750074;82;20915;-71
2021/11/19 05:58:14;;;;;;;47.83;28.57;;;;;;;2.27;72.31;101062.89;1750520;82;21398;-73
2021/11/19 06:00:52;;;;;;;49.45;29.50;;;;;;;2.31;72.27;101058.94;1749979;80;21418;-73
2021/11/19 06:03:27;;;;;;;49.50;31.05;;;;;;;2.33;72.22;101058.02;1749024;82;21019;-72
2021/11/19 06:05:56;;;;;;;58.48;31.10;;;;;;;2.35;72.13;101059.30;1747286;82;21752;-72
2021/11/19 06:08:24;;;;;;;52.13;30.08;;;;;;;2.38;71.99;101054.05;1743595;81;20932;-74
2021/11/19 06:11:01;;;;;;;54.73;29.67;;;;;;;2.40;71.98;101054.88;1736002;82;20870;-73
2021/11/19 06:13:34;;;;;;;47.53;30.20;;;;;;;2.41;72.00;101051.42;1736134;82;20949;-73
2021/11/19 06:16:09;;;;;;;53.60;30.35;;;;;;;2.43;72.11;101050.95;1736231;82;20936;-73
2021/11/19 06:18:44;;;;;;;40.85;26.05;;;;;;;2.47;72.14;101053.90;1736322;81;21164;-74
2021/11/19 06:21:15;;;;;;;49.75;27.25;;;;;;;2.51;72.02;101061.14;1734972;82;21459;-73
2021/11/19 06:23:46;;;;;;;48.98;27.17;;;;;;;2.51;71.91;101062.44;1736474;81;20909;-74
2021/11/19 06:26:15;;;;;;;51.63;28.52;;;;;;;2.48;71.80;101059.03;1736150;82;21327;-75
2021/11/19 06:28:46;;;;;;;40.95;25.85;;;;;;;2.47;71.78;101062.52;1736108;81;20826;-73
2021/11/19 06:31:15;;;;;;;46.95;25.02;;;;;;;2.47;71.80;101054.75;1736088;81;21110;-72
2021/11/19 06:33:42;;;;;;;41.33;25.50;;;;;;;2.49;71.80;101063.78;1736102;82;21390;-72
2021/11/19 06:36:09;;;;;;;47.58;26.50;;;;;;;2.51;71.89;101054.23;1736144;82;20983;-72
2021/11/19 06:38:37;;;;;;;51.05;25.97;;;;;;;2.52;71.93;101047.34;1736010;82;21003;-73
2021/11/19 06:41:06;;;;;;;57.13;27.02;;;;;;;2.54;71.97;101047.71;1735874;82;21442;-71
2021/11/19 06:43:49;;;;;;;48.65;28.83;;;;;;;2.61;71.93;101060.94;1734743;82;21154;-72
2021/11/19 06:46:22;;;;;;;47.88;28.45;;;;;;;2.67;71.79;101057.39;1734403;82;20988;-73
2021/11/19 06:49:07;;;;;;;42.62;26.33;;;;;;;2.71;71.58;101062.89;1735986;82;21074;-72
2021/11/19 06:51:49;;;;;;;40.30;25.88;;;;;;;2.70;71.40;101055.56;1708801;82;20992;-71
2021/11/19 06:54:23;;;;;;;;;;;;;;;2.73;71.29;101054.65;1714331;82;20992;-72
2021/11/19 06:56:52;;;;;;;47.75;27.22;;;;;;;2.76;71.28;101061.50;1714091;82;21587;-71
2021/11/19 06:59:20;;;;;;;57.05;30.72;;;;;;;2.78;71.28;101051.96;1734856;82;20846;-73
2021/11/19 07:01:47;;;;;;;67.35;32.50;;;;;;;2.80;71.37;101048.90;1736539;82;20969;-73
2021/11/19 07:04:14;;;;;;;55.85;32.60;;;;;;;2.83;71.41;101055.33;1736106;81;20901;-73
2021/11/19 07:06:41;;;;;;;62.13;32.55;;;;;;;2.85;71.32;101057.00;1736194;82;20972;-73
2021/11/19 07:09:10;;;;;;;71.12;34.53;;;;;;;2.88;71.25;101056.08;1736128;81;21479;-72
2021/11/19 07:11:37;;;;;;;64.25;37.60;;;;;;;2.90;71.11;101049.97;1715609;82;21011;-72
2021/11/19 07:14:05;;;;;;;73.12;40.90;;;;;;;2.90;71.01;101043.95;1736262;82;20877;-73
2021/11/19 07:16:34;;;;;;;61.20;37.28;;;;;;;2.90;70.94;101053.02;1736152;82;20984;-72
2021/11/19 07:19:02;;;;;;;65.22;33.95;;;;;;;2.91;70.90;101048.23;1736434;82;21402;-74
2021/11/19 07:21:29;;;;;;;59.55;32.63;;;;;;;2.90;70.90;101051.72;1735972;81;21813;-74
2021/11/19 07:23:59;;;;;;;62.27;38.08;;;;;;;2.89;71.04;101052.59;1715235;82;20929;-73
2021/11/19 07:26:27;;;;;;;68.12;39.53;;;;;;;2.90;71.24;101051.72;1736098;82;20873;-75
2021/11/19 07:28:54;;;;;;;70.12;37.80;;;;;;;2.92;71.36;101047.81;1736416;82;20940;-75
2021/11/19 07:31:39;;;;;;;68.50;38.45;;;;;;;2.93;71.34;101046.46;1736241;82;20944;-74
2021/11/19 07:34:18;;;;;;;73.62;40.58;;;;;;;2.98;71.27;101048.53;1736318;81;21547;-74
2021/11/19 07:37:04;;;;;;;74.85;43.48;;;;;;;2.98;71.18;101044.65;1735955;81;20845;-74
2021/11/19 07:39:39;;;;;;;68.67;39.58;;;;;;;3.01;71.16;101054.09;1681937;84;20991;-73
2021/11/19 07:42:08;;;;;;;79.82;43.25;;;;;;;3.02;71.12;101056.63;1682205;85;21097;-74
2021/11/19 07:44:45;;;;;;;64.58;40.23;;;;;;;3.05;71.02;101055.28;1668227;85;20968;-75
2021/11/19 07:47:16;;;;;;;70.90;41.88;;;;;;;3.08;70.99;101049.17;1672003;84;21517;-73
2021/11/19 07:49:45;;;;;;;75.05;44.63;;;;;;;3.06;71.11;101046.60;1681982;85;20960;-75
2021/11/19 07:52:14;;;;;;;78.75;45.78;;;;;;;3.07;71.32;101040.55;1682224;85;21015;-74
2021/11/19 07:54:41;;;;;;;75.72;47.85;;;;;;;3.15;71.43;101027.86;1682160;85;20968;-77
2021/11/19 07:57:08;;;;;;;81.60;49.75;;;;;;;3.23;71.33;101029.39;1682084;84;21015;-78
2021/11/19 07:59:35;;;;;;;86.08;51.10;;;;;;;3.30;71.22;101024.92;1682198;84;21556;-77
2021/11/19 08:02:03;;;;;;;96.35;53.17;;;;;;;3.37;71.09;101024.33;1682104;85;20912;-77
2021/11/19 08:04:33;;;;;;;96.10;54.03;;;;;;;3.44;70.94;101021.55;1682175;84;21020;-78
2021/11/19 08:07:02;;;;;;;86.63;52.80;;;;;;;3.50;70.78;101020.56;1682197;85;20976;-80
2021/11/19 08:09:45;;;;;;;101.85;56.77;;;;;;;3.56;70.68;101014.36;1690336;84;20922;-80
2021/11/19 08:12:13;;;;;;;99.22;53.98;;;;;;;3.63;70.64;101009.45;1695107;84;21135;-79
2021/11/19 08:14:42;;;;;;;98.75;54.05;;;;;;;3.70;70.63;101002.75;1695089;84;20948;-79
2021/11/19 08:17:21;;;;;;;101.10;60.20;;;;;;;3.77;70.61;100993.08;1734841;80;21460;-80
2021/11/19 08:19:49;;;;;;;101.45;60.48;;;;;;;3.86;70.60;100995.42;1688339;83;20987;-78
2021/11/19 08:22:16;;;;;;;126.72;64.37;;;;;;;4.00;70.53;100993.76;1695226;83;20986;-73
2021/11/19 08:24:44;;;;;;;119.70;68.30;;;;;;;4.11;70.31;100998.66;1695323;83;21118;-77
2021/11/19 08:27:16;;;;;;;125.92;66.57;;;;;;;4.19;70.16;100999.77;1695143;83;20927;-75
2021/11/19 08:29:45;;;;;;;126.53;68.47;;;;;;;4.25;70.12;100999.16;1695627;83;20931;-75
2021/11/19 08:32:12;;;;;;;130.57;74.32;;;;;;;4.31;69.93;100990.33;1695081;83;21039;-75
2021/11/19 08:34:41;;;;;;;118.42;64.60;;;;;;;4.36;69.82;100992.38;1695172;83;20963;-75
2021/11/19 08:37:09;;;;;;;131.27;69.65;;;;;;;4.43;69.74;100990.45;1695233;83;21541;-75
2021/11/19 08:39:36;;;;;;;134.07;77.45;;;;;;;4.50;69.68;100978.98;1695116;83;21587;-77
2021/11/19 08:42:06;;;;;;;130.25;66.92;;;;;;;4.59;69.72;100980.47;1695433;83;21455;-76
2021/11/19 08:44:32;;;;;;;117.60;63.70;;;;;;;4.68;69.76;100979.73;1695259;83;20975;-75
2021/11/19 08:46:59;;;;;;;119.20;64.60;;;;;;;4.77;69.71;100983.80;1695173;84;20940;-76
2021/11/19 08:49:33;;;;;;;118.82;65.37;;;;;;;4.88;69.65;100983.03;1695164;83;21131;-76
2021/11/19 08:52:00;;;;;;;120.70;68.23;;;;;;;4.98;69.39;100975.82;1695408;83;20956;-75
2021/11/19 08:54:27;;;;;;;131.45;68.83;;;;;;;5.06;69.16;100969.06;1694981;83;20936;-76
2021/11/19 08:56:59;;;;;;;127.30;68.85;;;;;;;5.13;69.04;100962.77;1721297;81;21466;-75
2021/11/19 08:59:28;;;;;;;123.82;65.70;;;;;;;5.18;68.79;100962.20;1758038;80;20920;-76
2021/11/19 09:01:56;;;;;;;118.97;65.55;;;;;;;5.21;68.65;100960.78;1758252;81;21073;-77
2021/11/19 09:04:23;;;;;;;120.35;68.00;;;;;;;5.22;68.65;100962.47;1758026;81;20930;-77
2021/11/19 09:06:50;;;;;;;120.42;64.45;;;;;;;5.23;68.54;100959.45;1757947;80;20900;-75
2021/11/19 09:09:17;;;;;;;135.52;72.22;;;;;;;5.22;68.56;100953.37;1755448;81;20967;-77
2021/11/19 09:11:45;;;;;;;157.62;83.65;;;;;;;5.26;68.56;100956.28;1750438;82;20896;-77
2021/11/19 09:14:13;;;;;;;152.40;80.65;;;;;;;5.29;68.50;100954.89;1750460;80;21802;-76
2021/11/19 09:16:57;;;;;;;159.37;87.72;;;;;;;5.32;68.71;100948.28;1750174;82;20975;-77
2021/11/19 09:19:36;;;;;;;174.02;99.28;;;;;;;5.40;68.66;100940.21;1750052;82;21338;-76
2021/11/19 09:22:29;;;;;;;182.85;105.70;;;;;;;5.50;68.43;100938.17;1750267;80;20917;-76
2021/11/19 09:24:56;;;;;;;196.37;106.65;;;;;;;5.55;68.16;100938.86;1750841;80;20896;-76
2021/11/19 09:27:23;;;;;;;175.05;96.53;;;;;;;5.56;67.96;100928.87;1750217;80;21195;-75
2021/11/19 09:29:54;;;;;;;164.00;92.12;;;;;;;5.52;67.89;100922.91;1750252;82;20959;-75
2021/11/19 09:32:23;;;;;;;159.60;89.40;;;;;;;5.51;68.01;100919.05;1750997;80;20904;-81
2021/11/19 09:34:53;;;;;;;158.07;79.85;;;;;;;5.48;68.08;100913.96;1750611;82;20987;-76
2021/11/19 09:37:20;;;;;;;159.18;83.82;;;;;;;5.51;68.21;100920.34;1750343;82;21067;-77
2021/11/19 09:39:48;;;;;;;154.18;76.30;;;;;;;5.56;68.11;100921.06;1750485;82;21114;-76
2021/11/19 09:42:46;;;;;;;140.40;72.25;;;;;;;5.56;68.11;100914.10;1750139;80;20991;-75
2021/11/19 09:45:49;;;;;;;131.37;69.07;;;;;;;5.56;68.03;100906.30;1750633;82;20920;-78
2021/11/19 09:48:21;;;;;;;128.50;71.28;;;;;;;5.54;68.22;100908.09;1750287;80;20912;-78
2021/11/19 09:51:17;;;;;;;138.07;73.97;;;;;;;5.56;68.35;100901.55;1750344;80;21027;-77
2021/11/19 09:54:17;;;;;;;126.07;68.35;;;;;;;5.58;68.36;100903.62;1749931;80;21182;-79
2021/11/19 09:57:15;;;;;;;131.12;70.45;;;;;;;5.57;68.36;100899.34;1750556;82;20916;-73
2021/11/19 10:00:00;;;;;;;118.30;66.42;;;;;;;5.56;68.33;100897.65;1750242;81;20880;-74
2021/11/19 10:02:58;;;;;;;127.17;71.72;;;;;;;5.54;68.35;100899.00;1750366;82;20868;-74
2021/11/19 10:05:54;;;;;;;120.77;66.17;;;;;;;5.50;68.39;100894.80;1750154;82;20873;-74
2021/11/19 10:08:57;;;;;;;133.67;74.15;;;;;;;5.47;68.46;100891.44;1694848;83;21186;-75
2021/11/19 10:11:38;;;;;;;123.55;70.15;;;;;;;5.43;68.67;100885.97;1684716;84;20962;-76
2021/11/19 10:14:16;;;;;;;137.65;77.08;;;;;;;5.42;68.84;100884.25;1684889;83;20914;-77
2021/11/19 10:17:18;;;;;;;130.47;73.47;;;;;;;5.45;69.05;100878.94;1684766;83;20907;-76
2021/11/19 10:19:54;;;;;;;104.25;57.90;;;;;;;5.52;69.11;100880.45;1684917;84;20950;-76
2021/11/19 10:22:29;;;;;;;91.17;54.48;;;;;;;5.55;68.89;100878.56;1662120;85;21148;-75
2021/11/19 10:25:31;;;;;;;92.10;51.85;;;;;;;5.54;69.04;100878.64;1684530;85;21384;-75
2021/11/19 10:28:03;;;;;;;115.85;64.32;;;;;;;5.50;68.99;100864.88;1684817;84;21502;-76
2021/11/19 10:30:40;;;;;;;132.05;74.37;;;;;;;5.49;68.97;100867.10;1684772;84;20989;-74
2021/11/19 10:33:18;;;;;;;121.45;71.65;;;;;;;5.49;69.07;100868.83;1684718;83;20926;-74
2021/11/19 10:36:18;;;;;;;111.28;64.32;;;;;;;5.48;68.96;100862.78;1684759;83;21315;-76
2021/11/19 10:39:24;;;;;;;109.78;61.95;;;;;;;5.46;68.91;100858.09;1665654;85;21533;-75
2021/11/19 10:42:15;;;;;;;112.75;63.30;;;;;;;5.38;69.01;100855.77;1698083;82;21382;-76
2021/11/19 10:45:28;;;;;;;118.22;67.85;;;;;;;5.33;69.27;100853.75;1744403;82;21366;-75
2021/11/19 10:48:27;;;;;;;94.35;51.40;;;;;;;5.36;69.43;100851.52;1727088;80;21374;-75
2021/11/19 10:51:23;;;;;;;82.55;45.23;;;;;;;5.38;69.36;100849.69;1744337;82;21158;-74
2021/11/19 10:54:21;;;;;;;84.42;43.68;;;;;;;5.36;69.41;100851.06;1725334;82;20964;-75
2021/11/19 10:57:18;;;;;;;71.95;45.23;;;;;;;5.35;69.42;100844.15;1744315;82;20999;-75
2021/11/19 11:00:08;;;;;;;76.77;45.75;;;;;;;5.35;69.43;100836.80;1744122;80;20928;-73
2021/11/19 11:02:56;;;;;;;84.25;50.17;;;;;;;5.37;69.38;100834.55;1727185;82;20941;-74
2021/11/19 11:05:39;;;;;;;92.02;55.08;;;;;;;5.35;69.40;100831.14;1744263;82;21128;-76
2021/11/19 11:08:20;;;;;;;86.85;50.88;;;;;;;5.36;69.38;100832.86;1744171;82;20884;-78
2021/11/19 11:10:54;;;;;;;90.53;55.12;;;;;;;5.36;69.28;100828.96;1747929;81;20888;-75
2021/11/19 11:13:38;;;;;;;91.85;52.30;;;;;;;5.35;69.24;100818.14;1743696;82;20936;-75
2021/11/19 11:16:26;;;;;;;100.33;57.13;;;;;;;5.33;69.18;100816.05;1750552;82;20897;-76
2021/11/19 11:19:01;;;;;;;96.97;57.30;;;;;;;5.30;69.22;100809.66;1750108;82;21569;-76
2021/11/19 11:22:02;;;;;;;84.55;45.38;;;;;;;5.23;69.19;100804.30;1750178;80;21492;-74
2021/11/19 11:24:54;;;;;;;76.77;42.13;;;;;;;5.20;69.19;100800.48;1750049;82;20976;-75
2021/11/19 11:27:51;;;;;;;63.05;38.95;;;;;;;5.16;69.15;100802.36;1749791;82;20889;-75
2021/11/19 11:30:22;;;;;;;62.23;35.33;;;;;;;5.12;69.37;100809.02;1730439;82;20833;-74
2021/11/19 11:32:58;;;;;;;60.50;34.73;;;;;;;5.09;69.51;100802.60;1749699;82;21103;-76
2021/11/19 11:35:51;;;;;;;62.30;36.17;;;;;;;5.09;69.46;100798.28;1749959;82;20916;-75
2021/11/19 11:38:23;;;;;;;63.55;36.42;;;;;;;5.09;69.48;100799.58;1750135;82;20944;-76
2021/11/19 11:41:22;;;;;;;55.25;31.82;;;;;;;5.08;69.46;100793.96;1750133;80;20905;-77
2021/11/19 11:44:11;;;;;;;46.77;29.32;;;;;;;5.06;69.50;100784.52;1727977;82;21469;-77
2021/11/19 11:46:54;;;;;;;49.75;29.82;;;;;;;4.96;69.63;100790.50;1750184;82;21557;-76
2021/11/19 11:49:47;;;;;;;48.55;27.25;;;;;;;4.87;69.89;100785.16;1750337;82;20896;-87